Time;durP1;ratioP1;P1;durP2;ratioP2;P2;SDS_P1;SDS_P2;PMS_P1;PMS_P2;Temp;Humidity;BMP_temperature;BMP_pressure;BME280_temperature;BME280_humidity;BME280_pressure;Samples;Min_cycle;Max_cycle;Signal;HPM_P1;HPM_P2
2021/07/28 00:00:18;;;;;;;4.50;3.97;;;22.90;1.00;;;;;;5033787;28;20460;-82
2021/07/28 00:02:46;;;;;;;4.30;3.90;;;22.90;1.00;;;;;;5035371;28;20503;-82
2021/07/28 00:05:16;;;;;;;4.20;3.77;;;22.70;1.00;;;;;;5016284;28;20455;-82
2021/07/28 00:07:44;;;;;;;4.30;3.90;;;22.90;1.00;;;;;;5029345;28;20554;-81
2021/07/28 00:10:12;;;;;;;4.43;4.07;;;22.90;1.00;;;;;;5030663;28;20486;-81
2021/07/28 00:12:41;;;;;;;4.50;4.10;;;22.80;1.00;;;;;;5023147;28;20491;-81
2021/07/28 00:15:10;;;;;;;4.90;4.30;;;22.70;1.00;;;;;;5031683;28;20996;-81
2021/07/28 00:17:43;;;;;;;5.00;4.33;;;22.80;1.00;;;;;;5025367;28;20471;-79
2021/07/28 00:20:17;;;;;;;4.83;4.43;;;22.70;31.00;;;;;;5032485;28;20464;-80
2021/07/28 00:25:35;;;;;;;7.20;3.90;;;22.70;1.00;;;;;;5013929;28;21007;-83
2021/07/28 00:28:05;;;;;;;4.70;4.23;;;22.70;1.00;;;;;;5030738;28;21077;-84
2021/07/28 00:30:33;;;;;;;4.53;4.13;;;22.70;1.00;;;;;;5031359;28;20449;-82
2021/07/28 00:33:02;;;;;;;4.50;3.97;;;22.70;1.00;;;;;;5016345;28;20475;-81
2021/07/28 00:35:30;;;;;;;5.03;4.40;;;22.70;32.30;;;;;;5032463;28;20484;-82
2021/07/28 00:38:04;;;;;;;5.57;4.43;;;22.60;99.90;;;;;;5031765;28;20456;-81
2021/07/28 00:40:33;;;;;;;4.50;4.20;;;22.60;99.90;;;;;;5032865;28;20550;-81
2021/07/28 00:43:12;;;;;;;3.87;3.57;;;22.60;91.60;;;;;;5033542;28;20476;-80
2021/07/28 00:45:40;;;;;;;4.00;3.60;;;22.60;1.00;;;;;;5017774;28;20538;-82
2021/07/28 00:48:09;;;;;;;4.40;3.90;;;22.60;1.00;;;;;;5031993;28;20443;-81
2021/07/28 00:50:39;;;;;;;4.60;4.10;;;22.60;1.00;;;;;;5032755;28;20487;-81
2021/07/28 00:53:16;;;;;;;4.07;3.77;;;22.60;1.00;;;;;;5032465;28;20468;-81
2021/07/28 00:55:45;;;;;;;4.07;3.77;;;22.60;1.00;;;;;;5031625;28;20955;-82
2021/07/28 00:58:13;;;;;;;4.67;3.50;;;22.70;99.90;;;;;;5018574;28;20456;-83
2021/07/28 01:00:42;;;;;;;4.23;3.87;;;22.60;1.00;;;;;;5032282;28;20461;-81
2021/07/28 01:03:11;;;;;;;4.77;4.30;;;22.60;1.00;;;;;;5040661;28;20470;-79
2021/07/28 01:05:39;;;;;;;4.40;4.00;;;22.50;1.00;;;;;;5022915;28;20451;-81
2021/07/28 01:08:10;;;;;;;5.73;5.20;;;22.50;1.00;;;;;;5031198;28;20948;-80
2021/07/28 01:10:38;;;;;;;5.07;4.60;;;22.50;1.00;;;;;;5014024;28;21125;-80
2021/07/28 01:13:07;;;;;;;4.47;4.07;;;22.50;28.10;;;;;;5031842;28;20514;-82
2021/07/28 01:15:42;;;;;;;4.63;4.17;;;22.40;99.90;;;;;;5030963;28;20530;-80
2021/07/28 01:18:13;;;;;;;4.17;3.73;;;22.40;99.90;;;;;;5031750;28;20896;-79
2021/07/28 01:20:44;;;;;;;4.80;4.27;;;22.40;99.90;;;;;;5028877;28;20459;-81
2021/07/28 01:23:20;;;;;;;5.83;4.53;;;22.30;99.90;;;;;;5026921;28;20534;-79
2021/07/28 01:25:49;;;;;;;4.30;3.90;;;22.40;99.90;;;;;;5026913;28;20955;-80
2021/07/28 01:28:19;;;;;;;5.03;3.97;;;22.40;99.90;;;;;;5033867;28;20850;-80
2021/07/28 01:30:58;;;;;;;6.27;5.67;;;22.40;99.90;;;;;;5030783;28;20455;-80
2021/07/28 01:33:26;;;;;;;4.53;4.20;;;22.40;28.60;;;;;;5017465;28;20460;-81
2021/07/28 01:35:55;;;;;;;4.50;4.10;;;22.40;16.50;;;;;;5018699;28;20479;-80
2021/07/28 01:38:26;;;;;;;6.10;4.30;;;22.40;10.60;;;;;;5032665;28;20524;-80
2021/07/28 01:40:55;;;;;;;3.60;3.30;;;22.30;1.00;;;;;;5036696;28;20468;-80
2021/07/28 01:43:25;;;;;;;3.60;3.37;;;22.30;1.00;;;;;;5032085;28;20471;-81
2021/07/28 01:45:53;;;;;;;4.20;3.80;;;22.30;1.00;;;;;;5023060;28;20453;-79
2021/07/28 01:48:22;;;;;;;4.53;3.20;;;22.30;1.00;;;;;;5030844;28;20483;-80
2021/07/28 01:50:50;;;;;;;3.80;3.40;;;22.10;1.00;;;;;;5022066;28;20499;-79
2021/07/28 01:53:18;;;;;;;4.70;3.73;;;22.00;99.90;;;;;;5030493;28;20472;-80
2021/07/28 01:55:48;;;;;;;3.70;2.87;;;22.00;99.90;;;;;;5028549;28;21010;-81
2021/07/28 01:58:18;;;;;;;3.53;3.23;;;21.90;99.90;;;;;;5030997;28;20447;-80
2021/07/28 02:00:46;;;;;;;3.60;3.30;;;21.90;99.90;;;;;;5030213;28;20464;-81
2021/07/28 02:03:15;;;;;;;3.80;3.47;;;21.90;99.90;;;;;;5028797;28;20491;-81
2021/07/28 02:05:44;;;;;;;3.37;3.13;;;21.80;99.90;;;;;;5029538;28;20465;-80
2021/07/28 02:08:15;;;;;;;2.80;2.60;;;21.70;1.00;;;;;;5030212;28;20522;-81
2021/07/28 02:10:46;;;;;;;3.07;2.77;;;21.60;1.00;;;;;;5030186;28;20466;-80
2021/07/28 02:13:16;;;;;;;3.63;3.07;;;21.50;1.00;;;;;;5025584;28;20997;-80
2021/07/28 02:15:45;;;;;;;3.77;3.40;;;21.50;1.00;;;;;;5021164;28;20460;-80
2021/07/28 02:18:13;;;;;;;3.10;2.83;;;21.60;1.00;;;;;;5029126;28;21139;-82
2021/07/28 02:20:41;;;;;;;3.10;2.90;;;21.60;1.00;;;;;;5024750;28;20455;-81
2021/07/28 02:23:09;;;;;;;3.97;3.60;;;21.50;1.00;;;;;;4992680;28;20842;-80
2021/07/28 02:25:37;;;;;;;3.87;3.47;;;21.50;1.00;;;;;;5024827;28;20540;-80
2021/07/28 02:28:05;;;;;;;2.80;2.60;;;21.50;99.90;;;;;;5029329;28;20532;-81
2021/07/28 02:30:35;;;;;;;3.77;3.37;;;21.50;92.30;;;;;;5027813;28;20458;-81
2021/07/28 02:33:03;;;;;;;3.60;3.30;;;21.50;93.80;;;;;;5029840;28;20470;-80
2021/07/28 02:35:31;;;;;;;4.67;3.30;;;21.50;99.90;;;;;;5027616;28;20470;-79
2021/07/28 02:37:59;;;;;;;3.47;3.17;;;21.30;99.90;;;;;;5025401;28;20481;-80
2021/07/28 02:40:27;;;;;;;3.50;3.20;;;21.20;1.00;;;;;;5022309;28;20586;-81
2021/07/28 02:42:55;;;;;;;4.90;3.80;;;21.30;1.00;;;;;;5030704;28;20476;-78
2021/07/28 02:45:23;;;;;;;3.63;3.33;;;21.30;1.00;;;;;;5028187;28;20464;-80
2021/07/28 02:47:53;;;;;;;3.97;3.37;;;21.30;99.90;;;;;;5031121;28;20454;-80
2021/07/28 02:50:21;;;;;;;3.77;3.43;;;21.10;99.90;;;;;;5032036;28;20452;-80
2021/07/28 02:52:49;;;;;;;4.80;4.40;;;21.10;1.00;;;;;;5031902;28;20464;-81
2021/07/28 02:55:17;;;;;;;4.27;2.93;;;21.10;99.90;;;;;;5028630;28;20891;-82
2021/07/28 02:57:45;;;;;;;4.20;3.80;;;21.10;1.00;;;;;;5017100;28;21059;-80
2021/07/28 03:00:14;;;;;;;3.63;3.30;;;21.10;99.90;;;;;;5029146;28;20456;-81
2021/07/28 03:02:42;;;;;;;3.63;3.33;;;21.10;99.90;;;;;;5028680;28;20472;-81
2021/07/28 03:05:12;;;;;;;5.70;3.90;;;21.10;99.90;;;;;;5012544;28;20492;-79
2021/07/28 03:07:40;;;;;;;4.13;3.23;;;21.00;99.90;;;;;;5028302;28;21094;-80
2021/07/28 03:10:10;;;;;;;3.10;2.90;;;21.10;83.50;;;;;;5032550;28;20556;-81
2021/07/28 03:12:38;;;;;;;4.33;3.57;;;21.10;99.90;;;;;;5011457;28;20483;-80
2021/07/28 03:15:08;;;;;;;3.57;3.27;;;21.10;99.90;;;;;;5026306;28;20780;-82
2021/07/28 03:17:36;;;;;;;3.50;3.03;;;21.10;99.90;;;;;;5015458;28;20562;-80
2021/07/28 03:20:05;;;;;;;3.60;3.30;;;21.00;99.90;;;;;;5033315;28;20464;-81
2021/07/28 03:22:34;;;;;;;4.00;3.33;;;21.00;99.90;;;;;;5030736;28;20519;-80
2021/07/28 03:25:02;;;;;;;4.27;3.17;;;21.20;99.90;;;;;;5032896;28;20477;-78
2021/07/28 03:27:31;;;;;;;3.80;3.40;;;21.30;54.00;;;;;;5032652;28;20444;-80
2021/07/28 03:29:59;;;;;;;3.20;2.93;;;21.40;1.00;;;;;;5032470;28;20448;-81
2021/07/28 03:32:27;;;;;;;3.63;2.87;;;21.50;1.00;;;;;;5032693;28;20480;-83
2021/07/28 03:34:55;;;;;;;4.00;3.07;;;21.60;1.00;;;;;;5032296;28;20504;-79
2021/07/28 03:37:23;;;;;;;5.20;3.10;;;21.60;99.90;;;;;;5032185;28;20484;-82
2021/07/28 03:40:00;;;;;;;3.10;2.60;;;21.70;99.90;;;;;;5015455;28;20464;-80
2021/07/28 03:42:29;;;;;;;3.50;2.93;;;21.60;99.90;;;;;;5033021;28;20912;-80
2021/07/28 03:44:57;;;;;;;3.30;3.03;;;21.60;1.00;;;;;;5032526;28;20515;-79
2021/07/28 03:47:26;;;;;;;4.20;3.17;;;21.60;99.90;;;;;;5014838;28;21110;-83
2021/07/28 03:49:54;;;;;;;4.20;3.30;;;21.50;99.90;;;;;;5032464;28;20459;-80
2021/07/28 03:52:22;;;;;;;5.10;3.40;;;21.60;1.00;;;;;;5033125;28;20514;-81
2021/07/28 03:54:53;;;;;;;2.90;2.67;;;21.60;99.90;;;;;;5016870;28;20449;-81
2021/07/28 03:57:21;;;;;;;3.40;3.10;;;21.60;99.90;;;;;;5031586;28;20842;-80
2021/07/28 03:59:49;;;;;;;5.50;3.50;;;21.60;99.90;;;;;;5031420;28;20460;-80
2021/07/28 04:02:17;;;;;;;3.00;2.70;;;21.60;99.90;;;;;;5030577;28;21369;-79
2021/07/28 04:04:45;;;;;;;3.90;3.60;;;21.70;99.90;;;;;;5026833;28;20451;-80
2021/07/28 04:07:13;;;;;;;3.93;3.63;;;21.60;99.90;;;;;;5030556;28;20960;-81
2021/07/28 04:09:41;;;;;;;7.37;4.50;;;21.60;99.90;;;;;;5030571;28;20451;-80
2021/07/28 04:12:11;;;;;;;4.07;3.67;;;21.60;99.90;;;;;;5022632;28;20530;-80
2021/07/28 04:14:39;;;;;;;4.07;3.53;;;21.60;99.90;;;;;;5034992;28;20542;-81
2021/07/28 04:17:07;;;;;;;3.90;2.93;;;21.50;1.00;;;;;;5017612;28;20826;-80
2021/07/28 04:19:35;;;;;;;3.80;2.93;;;21.50;1.00;;;;;;5030580;28;20496;-80
2021/07/28 04:22:04;;;;;;;4.53;4.13;;;21.50;1.00;;;;;;5016312;28;20517;-82
2021/07/28 04:24:33;;;;;;;3.87;3.53;;;21.60;99.90;;;;;;5032976;28;20473;-81
2021/07/28 04:27:01;;;;;;;4.50;4.10;;;21.50;1.00;;;;;;5031934;28;20519;-80
2021/07/28 04:29:30;;;;;;;3.83;3.23;;;21.50;99.90;;;;;;5033062;28;20488;-81
2021/07/28 04:31:59;;;;;;;4.17;3.47;;;21.60;99.90;;;;;;5013996;28;20465;-80
2021/07/28 04:34:27;;;;;;;3.30;2.97;;;21.50;99.90;;;;;;5015855;28;20839;-82
2021/07/28 04:36:55;;;;;;;4.47;3.43;;;21.60;99.90;;;;;;5029663;28;20461;-79
2021/07/28 04:39:23;;;;;;;6.53;3.97;;;21.60;99.90;;;;;;5029495;28;20473;-80
2021/07/28 04:41:51;;;;;;;4.53;3.43;;;21.50;99.90;;;;;;5023513;28;20456;-81
2021/07/28 04:44:19;;;;;;;5.80;3.60;;;21.50;1.00;;;;;;5020199;28;20461;-80
2021/07/28 04:46:49;;;;;;;4.30;3.87;;;21.50;1.00;;;;;;5028281;28;20516;-81
2021/07/28 04:49:17;;;;;;;3.57;3.27;;;21.50;1.00;;;;;;5031313;28;20531;-79
2021/07/28 04:51:47;;;;;;;5.00;4.43;;;21.60;1.00;;;;;;5029760;28;20503;-81
2021/07/28 04:54:15;;;;;;;4.07;3.60;;;21.60;1.00;;;;;;5021638;28;20448;-80
2021/07/28 04:56:43;;;;;;;4.47;3.83;;;21.60;1.00;;;;;;5028848;28;20518;-81
2021/07/28 04:59:12;;;;;;;3.73;3.43;;;21.60;1.00;;;;;;5014736;28;20480;-80
2021/07/28 05:01:40;;;;;;;4.10;3.40;;;21.50;1.00;;;;;;5030878;28;20530;-81
2021/07/28 05:04:09;;;;;;;4.70;3.70;;;21.50;1.00;;;;;;5030306;28;20495;-81
2021/07/28 05:06:40;;;;;;;4.03;3.63;;;21.60;1.00;;;;;;5030438;28;20954;-80
2021/07/28 05:09:08;;;;;;;3.90;3.50;;;21.30;1.00;;;;;;5029107;28;20463;-77
2021/07/28 05:11:37;;;;;;;4.07;3.67;;;21.50;1.00;;;;;;5030194;28;20445;-78
2021/07/28 05:14:05;;;;;;;3.70;3.23;;;21.30;99.90;;;;;;5027103;28;20461;-78
2021/07/28 05:16:34;;;;;;;4.30;3.90;;;21.20;1.00;;;;;;5026402;28;20456;-78
2021/07/28 05:19:02;;;;;;;4.03;3.60;;;21.20;99.90;;;;;;5028373;28;20483;-76
2021/07/28 05:21:31;;;;;;;5.50;4.10;;;21.10;99.90;;;;;;5024759;28;20454;-77
2021/07/28 05:23:59;;;;;;;4.20;3.80;;;21.10;99.90;;;;;;5027362;28;21028;-77
2021/07/28 05:26:28;;;;;;;6.90;3.90;;;21.10;99.90;;;;;;5026888;28;20457;-78
2021/07/28 05:28:56;;;;;;;4.07;3.50;;;21.10;99.90;;;;;;5025232;28;20448;-77
2021/07/28 05:31:24;;;;;;;4.10;3.80;;;21.00;99.90;;;;;;5026885;28;20461;-77
2021/07/28 05:33:52;;;;;;;3.67;3.27;;;20.90;1.00;;;;;;5026782;28;20480;-78
2021/07/28 05:36:20;;;;;;;8.33;4.23;;;20.80;1.00;;;;;;5013926;28;20460;-78
2021/07/28 05:38:49;;;;;;;5.43;3.60;;;20.80;92.40;;;;;;5030079;28;20534;-79
2021/07/28 05:41:17;;;;;;;4.10;3.20;;;20.80;1.00;;;;;;5032762;28;20468;-79
2021/07/28 05:43:45;;;;;;;3.90;3.30;;;20.80;1.00;;;;;;5027116;28;20567;-79
2021/07/28 05:46:13;;;;;;;4.10;3.20;;;20.70;8.10;;;;;;5035521;28;20502;-80
2021/07/28 05:48:42;;;;;;;4.30;3.87;;;20.70;1.00;;;;;;5039324;28;20883;-80
2021/07/28 05:51:10;;;;;;;3.33;3.03;;;20.60;1.00;;;;;;5033166;28;20457;-80
2021/07/28 05:53:38;;;;;;;3.20;2.90;;;20.60;7.90;;;;;;5014665;28;20495;-79
2021/07/28 05:56:07;;;;;;;4.17;3.50;;;20.40;99.90;;;;;;5035569;28;20460;-80
2021/07/28 05:58:35;;;;;;;4.17;3.47;;;20.40;99.90;;;;;;5039713;28;20471;-81
2021/07/28 06:01:03;;;;;;;3.50;3.30;;;20.40;1.00;;;;;;5046353;28;20456;-81
2021/07/28 06:03:32;;;;;;;4.63;3.70;;;20.40;99.90;;;;;;5039712;28;20507;-81
2021/07/28 06:06:00;;;;;;;4.97;3.27;;;20.50;99.90;;;;;;5021888;28;20509;-81
2021/07/28 06:08:28;;;;;;;3.30;3.00;;;20.70;99.90;;;;;;5027351;28;20445;-80
2021/07/28 06:10:57;;;;;;;5.80;3.20;;;20.90;99.90;;;;;;5028859;28;20535;-76
2021/07/28 06:13:27;;;;;;;3.63;3.20;;;21.00;99.90;;;;;;5019157;28;20535;-76
2021/07/28 06:15:55;;;;;;;3.90;3.60;;;21.00;99.90;;;;;;5029773;28;20475;-75
2021/07/28 06:18:23;;;;;;;5.20;3.33;;;21.10;1.00;;;;;;5033435;28;20449;-76
2021/07/28 06:20:51;;;;;;;3.40;2.90;;;21.10;1.00;;;;;;5028521;28;20533;-76
2021/07/28 06:23:19;;;;;;;4.60;3.50;;;21.10;1.00;;;;;;5022177;28;20469;-77
2021/07/28 06:25:47;;;;;;;5.47;3.20;;;21.20;1.00;;;;;;5026105;28;20452;-74
2021/07/28 06:28:15;;;;;;;4.67;3.57;;;21.20;1.00;;;;;;5042925;28;20452;-76
2021/07/28 06:30:45;;;;;;;4.63;4.23;;;21.10;1.00;;;;;;5024468;28;20452;-76
2021/07/28 06:33:13;;;;;;;4.27;3.90;;;21.10;1.00;;;;;;5025443;28;20521;-77
2021/07/28 06:35:41;;;;;;;7.40;4.47;;;20.90;1.00;;;;;;5010884;28;20452;-83
2021/07/28 06:38:09;;;;;;;5.30;4.10;;;20.90;1.00;;;;;;5037643;28;20999;-79
2021/07/28 06:40:37;;;;;;;6.60;3.80;;;20.80;99.90;;;;;;5012409;28;20481;-81
2021/07/28 06:46:53;;;;;;;4.67;4.17;;;20.90;99.90;;;;;;5862987;23;20802;-85
2021/07/28 06:49:41;;;;;;;6.37;4.13;;;20.90;99.90;;;;;;5014720;28;20464;-83
2021/07/28 06:52:09;;;;;;;4.90;3.97;;;20.80;1.00;;;;;;5017852;28;20472;-82
2021/07/28 06:54:38;;;;;;;4.60;4.20;;;20.80;1.00;;;;;;5019832;28;20971;-82
2021/07/28 06:57:06;;;;;;;4.20;3.80;;;20.90;1.00;;;;;;5019771;28;20476;-81
2021/07/28 06:59:34;;;;;;;5.97;3.90;;;20.80;1.00;;;;;;5017073;28;20488;-81
2021/07/28 07:02:04;;;;;;;4.50;3.73;;;20.60;99.90;;;;;;5024494;28;20454;-80
2021/07/28 07:04:32;;;;;;;4.57;4.17;;;20.40;1.00;;;;;;5019835;28;20448;-82
2021/07/28 07:07:01;;;;;;;6.30;3.67;;;20.30;1.00;;;;;;5016840;28;20472;-81
2021/07/28 07:09:29;;;;;;;5.17;3.90;;;20.20;99.90;;;;;;5025633;28;20548;-80
2021/07/28 07:11:57;;;;;;;6.50;3.73;;;20.20;1.00;;;;;;5011537;28;20465;-81
2021/07/28 07:14:25;;;;;;;4.67;4.27;;;20.20;1.00;;;;;;5022371;28;20460;-80
2021/07/28 07:16:56;;;;;;;6.00;4.80;;;20.20;1.00;;;;;;5014791;28;20477;-80
2021/07/28 07:19:26;;;;;;;4.63;3.30;;;20.00;99.90;;;;;;5013612;28;20888;-80
2021/07/28 07:21:54;;;;;;;7.00;4.87;;;20.20;99.90;;;;;;5016809;28;20876;-80
2021/07/28 07:24:22;;;;;;;4.10;3.70;;;20.40;78.50;;;;;;5026869;28;20500;-81
2021/07/28 07:26:50;;;;;;;4.10;3.60;;;20.60;1.00;;;;;;5010154;28;21067;-83
2021/07/28 07:29:18;;;;;;;4.43;4.10;;;20.60;99.90;;;;;;5012655;28;20457;-81
2021/07/28 07:31:46;;;;;;;7.30;4.20;;;20.70;99.90;;;;;;5023724;28;20453;-81
2021/07/28 07:34:14;;;;;;;4.17;3.77;;;20.70;99.90;;;;;;5009228;28;20468;-82
2021/07/28 07:36:44;;;;;;;4.73;3.93;;;20.60;1.00;;;;;;5023935;28;20476;-80
2021/07/28 07:39:12;;;;;;;5.10;3.77;;;20.60;99.90;;;;;;5017549;28;20469;-80
2021/07/28 07:41:40;;;;;;;4.07;3.30;;;20.60;1.00;;;;;;5022565;28;20959;-80
2021/07/28 07:44:09;;;;;;;4.97;3.40;;;20.50;71.30;;;;;;5018653;28;20490;-80
2021/07/28 07:46:37;;;;;;;4.20;3.33;;;20.50;1.00;;;;;;5021169;28;20438;-81
2021/07/28 07:49:05;;;;;;;4.10;3.60;;;20.60;99.90;;;;;;5026390;28;20518;-81
2021/07/28 07:51:33;;;;;;;4.17;3.80;;;20.50;1.00;;;;;;5019770;28;20444;-81
2021/07/28 07:54:03;;;;;;;4.67;4.10;;;20.40;99.90;;;;;;5027586;28;20539;-80
2021/07/28 07:56:31;;;;;;;3.80;3.10;;;20.40;1.00;;;;;;5024599;28;20515;-81
2021/07/28 07:58:59;;;;;;;3.60;3.13;;;20.50;1.00;;;;;;5024576;28;20843;-83
2021/07/28 08:01:27;;;;;;;4.40;3.87;;;20.30;1.00;;;;;;5026624;28;20964;-80
2021/07/28 08:03:56;;;;;;;3.97;3.17;;;20.30;1.00;;;;;;5025579;28;20448;-81
2021/07/28 08:06:24;;;;;;;4.70;4.30;;;20.40;99.90;;;;;;5027332;28;21015;-83
2021/07/28 08:08:53;;;;;;;5.07;3.97;;;20.30;99.90;;;;;;5015517;28;20468;-82
2021/07/28 08:11:22;;;;;;;7.43;4.57;;;20.20;99.90;;;;;;5016822;28;20434;-81
2021/07/28 08:13:50;;;;;;;5.00;3.50;;;20.30;99.90;;;;;;5019543;28;20520;-82
2021/07/28 08:16:20;;;;;;;4.93;3.90;;;20.20;1.00;;;;;;5014635;28;20469;-83
2021/07/28 08:18:48;;;;;;;4.60;3.60;;;20.20;99.90;;;;;;5031454;28;20848;-81
2021/07/28 08:21:18;;;;;;;4.20;3.70;;;20.20;1.00;;;;;;5018684;28;20633;-81
2021/07/28 08:23:47;;;;;;;7.60;4.20;;;20.20;1.00;;;;;;5024963;28;20503;-79
2021/07/28 08:26:19;;;;;;;4.97;4.43;;;20.30;99.90;;;;;;5026606;28;20877;-79
2021/07/28 08:28:49;;;;;;;4.37;3.93;;;20.30;99.90;;;;;;5024301;28;20503;-82
2021/07/28 08:31:17;;;;;;;4.70;3.83;;;20.30;99.90;;;;;;5023906;28;20510;-80
2021/07/28 08:33:45;;;;;;;6.47;4.57;;;20.40;99.90;;;;;;5023477;28;20472;-80
2021/07/28 08:36:14;;;;;;;4.40;3.87;;;20.20;99.90;;;;;;5018321;28;20453;-81
2021/07/28 08:38:42;;;;;;;4.00;3.63;;;20.00;99.90;;;;;;5018820;28;20475;-80
2021/07/28 08:41:11;;;;;;;5.80;3.17;;;19.70;1.00;;;;;;5035332;28;20473;-80
2021/07/28 08:43:40;;;;;;;6.10;3.83;;;19.80;1.00;;;;;;5018892;28;20460;-83
2021/07/28 08:46:10;;;;;;;4.97;3.23;;;20.00;99.90;;;;;;5025255;28;21179;-80
2021/07/28 08:48:39;;;;;;;4.40;3.67;;;20.00;99.90;;;;;;5014205;28;20821;-81
2021/07/28 08:51:07;;;;;;;4.43;3.70;;;20.00;97.30;;;;;;5032076;28;20452;-81
2021/07/28 08:53:35;;;;;;;3.93;3.50;;;19.90;1.00;;;;;;5019269;28;20457;-80
2021/07/28 08:56:04;;;;;;;7.47;3.90;;;20.00;1.00;;;;;;5013361;28;20461;-83
2021/07/28 08:58:33;;;;;;;4.00;3.60;;;20.00;1.00;;;;;;5015777;28;20465;-82
2021/07/28 09:01:02;;;;;;;3.97;3.63;;;20.10;99.90;;;;;;5021355;28;20473;-81
2021/07/28 09:03:32;;;;;;;3.00;2.80;;;20.20;99.90;;;;;;5027204;28;20472;-82
2021/07/28 09:06:01;;;;;;;2.83;2.63;;;20.30;99.90;;;;;;5017083;28;20468;-82
2021/07/28 09:08:30;;;;;;;3.80;3.50;;;20.40;99.90;;;;;;5013551;28;20465;-81
2021/07/28 09:11:00;;;;;;;5.20;3.37;;;20.30;1.00;;;;;;5021686;28;20822;-82
2021/07/28 09:13:33;;;;;;;4.83;3.57;;;20.30;99.90;;;;;;5016541;28;20991;-81
2021/07/28 09:16:04;;;;;;;4.27;3.20;;;20.40;99.90;;;;;;5023598;28;20464;-81
2021/07/28 09:18:38;;;;;;;3.97;3.00;;;20.10;1.00;;;;;;5015873;28;20489;-80
2021/07/28 09:21:25;;;;;;;3.80;3.40;;;20.10;99.90;;;;;;5011392;28;20477;-80
2021/07/28 09:23:57;;;;;;;3.70;3.27;;;20.00;1.00;;;;;;5024931;28;20510;-81
2021/07/28 11:12:27;;;;;;;2.97;2.60;;;21.90;1.00;;;;;;4969245;28;21508;-80
2021/07/28 11:14:58;;;;;;;5.23;3.20;;;21.80;1.00;;;;;;4962466;28;20672;-78
2021/07/28 11:17:27;;;;;;;4.43;2.87;;;21.50;1.00;;;;;;4968240;28;20521;-78
2021/07/28 11:19:55;;;;;;;3.33;3.03;;;21.40;1.00;;;;;;4967805;28;20490;-80
2021/07/28 11:22:26;;;;;;;3.67;2.70;;;21.50;1.00;;;;;;4979379;28;20504;-79
2021/07/28 11:24:58;;;;;;;3.13;2.93;;;21.60;1.00;;;;;;4966788;28;20464;-79
2021/07/28 11:27:26;;;;;;;3.00;2.60;;;21.80;1.00;;;;;;4981342;28;20462;-80
2021/07/28 11:30:11;;;;;;;2.97;2.67;;;22.10;1.00;;;;;;4977680;28;20496;-79
2021/07/28 11:32:39;;;;;;;4.20;3.13;;;22.30;1.00;;;;;;4981237;28;20472;-79
2021/07/28 11:35:08;;;;;;;2.37;2.17;;;22.40;1.00;;;;;;4977785;28;21035;-79
2021/07/28 11:37:36;;;;;;;2.70;2.20;;;22.50;1.00;;;;;;4975207;28;20465;-81
2021/07/28 11:40:06;;;;;;;2.97;2.73;;;22.50;1.00;;;;;;4975194;28;20476;-80
2021/07/28 11:42:34;;;;;;;2.47;2.27;;;22.40;1.00;;;;;;4974254;28;20460;-80
2021/07/28 11:45:03;;;;;;;2.53;2.33;;;22.40;1.00;;;;;;4966898;28;20953;-80
2021/07/28 11:47:32;;;;;;;3.27;2.43;;;22.30;1.00;;;;;;4976848;28;20454;-79
2021/07/28 11:50:02;;;;;;;3.57;3.00;;;22.30;1.00;;;;;;4973720;28;20481;-79
2021/07/28 11:52:31;;;;;;;4.43;2.70;;;22.20;1.00;;;;;;4974081;28;20535;-80
2021/07/28 11:55:00;;;;;;;2.00;1.90;;;22.10;1.00;;;;;;4984296;28;20519;-82
2021/07/28 11:57:28;;;;;;;2.63;2.43;;;22.10;1.00;;;;;;4990078;28;20525;-79
2021/07/28 12:00:29;;;;;;;3.40;2.47;;;22.20;1.00;;;;;;4973523;28;20477;-79
2021/07/28 12:03:24;;;;;;;2.67;2.20;;;22.40;1.00;;;;;;4970295;28;20461;-78
2021/07/28 12:06:00;;;;;;;2.87;2.30;;;22.60;1.00;;;;;;4973168;28;20454;-79
2021/07/28 12:08:33;;;;;;;3.00;2.60;;;22.70;1.00;;;;;;4964810;28;20453;-78
2021/07/28 12:11:05;;;;;;;2.40;2.03;;;22.70;1.00;;;;;;4980874;28;20465;-79
2021/07/28 12:13:44;;;;;;;2.60;2.40;;;22.60;1.00;;;;;;4973430;28;20444;-80
2021/07/28 12:16:12;;;;;;;3.87;2.30;;;22.70;1.00;;;;;;4975122;28;20447;-78
2021/07/28 12:18:44;;;;;;;4.83;2.60;;;22.80;1.00;;;;;;4971896;28;20460;-79
2021/07/28 12:21:13;;;;;;;3.33;2.70;;;22.90;1.00;;;;;;4976645;28;20479;-78
2021/07/28 12:23:51;;;;;;;2.50;2.30;;;22.80;1.00;;;;;;4974618;28;20534;-78
2021/07/28 12:26:47;;;;;;;2.93;2.63;;;22.80;1.00;;;;;;4988413;28;20450;-79
2021/07/28 12:29:33;;;;;;;3.37;3.17;;;22.90;1.00;;;;;;4971770;28;20474;-79
2021/07/28 12:32:11;;;;;;;2.67;2.40;;;23.10;1.00;;;;;;4986251;28;20457;-79
2021/07/28 12:34:41;;;;;;;2.77;2.20;;;23.10;99.90;;;;;;4972606;28;21209;-79
2021/07/28 12:37:19;;;;;;;2.67;2.47;;;23.20;99.90;;;;;;4972735;28;20501;-80
2021/07/28 12:39:47;;;;;;;2.97;2.30;;;23.20;99.90;;;;;;4973075;28;20478;-80
2021/07/28 12:42:30;;;;;;;3.50;3.20;;;23.30;99.90;;;;;;4971103;28;20489;-79
2021/07/28 12:44:58;;;;;;;2.60;2.40;;;23.30;99.90;;;;;;4974151;28;20542;-79
2021/07/28 12:47:26;;;;;;;2.50;2.20;;;23.30;99.90;;;;;;4970199;28;20462;-80
2021/07/28 12:49:57;;;;;;;2.77;2.53;;;23.30;99.90;;;;;;4967391;28;20493;-80
2021/07/28 12:52:25;;;;;;;3.80;2.90;;;23.30;99.90;;;;;;4972252;28;20451;-78
2021/07/28 12:54:53;;;;;;;2.80;2.60;;;23.40;99.90;;;;;;4981897;28;20463;-78
2021/07/28 12:57:22;;;;;;;2.27;1.77;;;23.40;99.90;;;;;;4974528;28;20460;-78
2021/07/28 12:59:50;;;;;;;2.40;2.20;;;23.50;99.90;;;;;;4971768;28;20537;-79
2021/07/28 13:02:18;;;;;;;2.40;2.20;;;23.60;99.90;;;;;;4974777;28;20498;-82
2021/07/28 13:04:46;;;;;;;3.10;2.47;;;23.60;99.90;;;;;;4972106;28;20532;-79
2021/07/28 13:07:17;;;;;;;2.33;2.03;;;23.50;99.90;;;;;;4971395;28;20455;-79
2021/07/28 13:09:45;;;;;;;3.20;2.90;;;23.50;99.90;;;;;;4971894;28;20475;-79
2021/07/28 13:12:13;;;;;;;2.67;2.00;;;23.50;99.90;;;;;;4971805;28;20537;-83
2021/07/28 13:14:41;;;;;;;2.90;2.40;;;23.60;99.90;;;;;;4970610;28;20983;-79
2021/07/28 13:17:09;;;;;;;2.50;2.03;;;23.50;99.90;;;;;;4971637;28;20470;-80
2021/07/28 13:19:37;;;;;;;2.27;1.93;;;23.50;99.90;;;;;;4972328;28;20545;-80
2021/07/28 13:22:05;;;;;;;3.50;2.80;;;23.50;99.90;;;;;;4967668;28;20924;-79
2021/07/28 13:24:35;;;;;;;2.87;2.40;;;23.50;99.90;;;;;;4971977;28;20955;-79
2021/07/28 13:27:03;;;;;;;5.07;2.60;;;23.40;99.90;;;;;;4971717;28;20494;-78
2021/07/28 13:29:32;;;;;;;3.10;2.90;;;23.50;99.90;;;;;;4979171;28;20484;-79
2021/07/28 13:32:00;;;;;;;2.47;2.27;;;23.50;99.90;;;;;;4973565;28;20465;-80
2021/07/28 13:34:29;;;;;;;4.27;2.90;;;23.60;99.90;;;;;;4971791;28;21040;-78
2021/07/28 13:36:57;;;;;;;3.60;2.70;;;23.70;99.90;;;;;;4972089;28;20462;-79
2021/07/28 13:39:25;;;;;;;2.30;2.10;;;23.80;99.90;;;;;;4971583;28;20491;-80
2021/07/28 13:41:54;;;;;;;2.37;2.23;;;23.90;99.90;;;;;;4973046;28;20470;-79
2021/07/28 13:44:23;;;;;;;2.70;2.37;;;23.90;99.90;;;;;;4975886;28;21025;-80
2021/07/28 13:46:51;;;;;;;3.50;2.73;;;23.90;99.90;;;;;;4988261;28;20545;-80
2021/07/28 13:49:19;;;;;;;2.97;2.60;;;23.90;99.90;;;;;;4966841;28;20483;-82
2021/07/28 13:51:47;;;;;;;2.33;2.13;;;23.90;99.90;;;;;;4971962;28;20518;-80
2021/07/28 13:54:15;;;;;;;3.07;2.77;;;23.80;99.90;;;;;;4977907;28;20444;-80
2021/07/28 13:56:44;;;;;;;2.60;2.40;;;23.70;99.90;;;;;;4972442;28;20518;-82
2021/07/28 13:59:13;;;;;;;3.17;2.87;;;23.70;99.90;;;;;;4969809;28;20459;-81
2021/07/28 14:01:41;;;;;;;3.07;2.67;;;23.70;99.90;;;;;;4973143;28;20450;-81
2021/07/28 14:04:10;;;;;;;3.27;2.83;;;23.70;99.90;;;;;;4988125;28;20946;-81
2021/07/28 14:06:38;;;;;;;4.23;3.07;;;23.60;99.90;;;;;;4973385;28;20466;-81
2021/07/28 14:09:06;;;;;;;2.80;2.40;;;23.60;99.90;;;;;;4986592;28;20463;-85
2021/07/28 14:11:36;;;;;;;3.60;2.60;;;23.60;99.90;;;;;;4972684;28;20443;-81
2021/07/28 14:14:04;;;;;;;2.63;2.43;;;23.60;99.90;;;;;;4971351;28;20470;-82
2021/07/28 14:16:34;;;;;;;3.13;2.70;;;23.70;99.90;;;;;;4981264;28;20541;-82
2021/07/28 14:19:02;;;;;;;2.53;2.30;;;23.80;99.90;;;;;;4972332;28;20475;-82
2021/07/28 14:21:31;;;;;;;3.30;3.10;;;23.80;99.90;;;;;;4972993;28;20881;-81
2021/07/28 14:23:59;;;;;;;2.50;2.30;;;23.90;99.90;;;;;;4958003;28;21188;-81
2021/07/28 14:26:28;;;;;;;2.83;2.53;;;23.80;99.90;;;;;;4972702;28;20520;-83
2021/07/28 14:28:56;;;;;;;2.60;2.40;;;23.70;99.90;;;;;;4971378;28;21323;-81
2021/07/28 14:31:24;;;;;;;2.17;2.00;;;23.70;99.90;;;;;;4972321;28;20486;-82
2021/07/28 14:33:54;;;;;;;3.57;2.90;;;23.90;99.90;;;;;;4972711;28;20470;-80
2021/07/28 14:36:22;;;;;;;2.73;2.33;;;23.80;99.90;;;;;;4959179;28;20455;-80
2021/07/28 14:38:50;;;;;;;3.57;2.90;;;23.70;99.90;;;;;;4985195;28;20443;-80
2021/07/28 14:41:21;;;;;;;2.83;2.20;;;23.80;99.90;;;;;;4970346;28;20475;-80
2021/07/28 14:43:49;;;;;;;3.93;2.47;;;23.80;99.90;;;;;;4967308;28;20522;-80
2021/07/28 14:46:35;;;;;;;3.83;3.40;;;23.90;99.90;;;;;;4971728;28;20462;-79
2021/07/28 14:49:07;;;;;;;3.50;2.87;;;23.80;99.90;;;;;;4985420;28;20541;-79
2021/07/28 14:51:36;;;;;;;5.10;3.27;;;23.90;99.90;;;;;;4972784;28;20463;-79
2021/07/28 14:54:06;;;;;;;2.40;2.20;;;23.90;99.90;;;;;;4969669;28;21100;-82